createdAt,value
2023-03-22T00:02:05.326Z,12.20
2023-03-22T00:04:32.574Z,12.70
2023-03-22T00:06:58.999Z,12.53
2023-03-22T00:09:25.486Z,12.47
2023-03-22T00:11:52.088Z,12.17
2023-03-22T00:14:18.708Z,12.00
2023-03-22T00:16:46.278Z,13.13
2023-03-22T00:19:12.825Z,13.50
2023-03-22T00:21:39.266Z,12.63
2023-03-22T00:24:06.330Z,12.70
2023-03-22T00:26:32.787Z,13.23
2023-03-22T00:28:59.305Z,12.70
2023-03-22T00:31:25.742Z,12.97
2023-03-22T00:33:52.149Z,12.70
2023-03-22T00:36:18.572Z,13.60
2023-03-22T00:38:45.315Z,14.00
2023-03-22T00:41:13.366Z,13.27
2023-03-22T00:43:40.087Z,13.40
2023-03-22T00:46:06.758Z,13.77
2023-03-22T00:48:33.533Z,13.67
2023-03-22T00:50:59.954Z,13.40
2023-03-22T00:53:26.444Z,13.40
2023-03-22T00:55:52.989Z,13.93
2023-03-22T00:58:19.372Z,13.80
2023-03-22T01:00:46.100Z,14.70
2023-03-22T01:03:14.233Z,13.97
2023-03-22T01:05:40.696Z,13.27
2023-03-22T01:08:09.984Z,14.37
2023-03-22T01:10:37.542Z,14.27
2023-03-22T01:13:04.464Z,12.97
2023-03-22T01:15:30.953Z,13.67
2023-03-22T01:17:57.701Z,14.77
2023-03-22T01:20:24.136Z,14.97
2023-03-22T01:22:50.611Z,13.97
2023-03-22T01:25:17.201Z,14.57
2023-03-22T01:27:43.605Z,14.30
2023-03-22T01:30:10.776Z,13.93
2023-03-22T01:32:37.597Z,14.10
2023-03-22T01:35:05.637Z,14.63
2023-03-22T01:37:32.546Z,14.27
2023-03-22T01:39:59.131Z,14.90
2023-03-22T01:42:26.388Z,15.07
2023-03-22T01:45:38.889Z,15.10
2023-03-22T01:48:10.595Z,14.87
2023-03-22T01:50:38.996Z,14.90
2023-03-22T01:53:07.622Z,16.20
2023-03-22T01:55:34.212Z,14.70
2023-03-22T01:58:01.410Z,15.27
2023-03-22T02:00:27.846Z,14.23
2023-03-22T02:02:54.282Z,15.60
2023-03-22T02:05:22.336Z,14.90
2023-03-22T02:07:49.916Z,14.10
2023-03-22T02:10:22.870Z,14.60
2023-03-22T02:13:01.069Z,14.03
2023-03-22T02:15:40.944Z,14.67
2023-03-22T02:18:30.056Z,14.97
2023-03-22T02:21:18.347Z,15.37
2023-03-22T02:24:18.255Z,15.13
2023-03-22T02:26:50.657Z,14.60
2023-03-22T02:29:26.330Z,13.77
2023-03-22T02:32:11.004Z,14.10
2023-03-22T02:35:07.377Z,13.63
2023-03-22T02:37:38.778Z,14.07
2023-03-22T02:40:11.330Z,14.37
2023-03-22T02:42:43.479Z,13.87
2023-03-22T02:45:34.797Z,14.10
2023-03-22T02:48:18.790Z,12.73
2023-03-22T02:51:01.927Z,13.83
2023-03-22T02:53:34.389Z,13.10
2023-03-22T02:56:02.733Z,13.20
2023-03-22T02:58:30.383Z,12.47
2023-03-22T03:01:00.797Z,13.07
2023-03-22T03:03:30.119Z,12.20
2023-03-22T03:05:59.769Z,12.43
2023-03-22T03:08:26.588Z,12.13
2023-03-22T03:10:53.668Z,11.47
2023-03-22T03:13:20.409Z,10.90
2023-03-22T03:15:52.641Z,11.37
2023-03-22T03:18:28.472Z,10.93
2023-03-22T03:21:00.565Z,10.87
2023-03-22T03:23:34.762Z,10.80
2023-03-22T03:26:08.179Z,11.90
2023-03-22T03:28:57.226Z,11.17
2023-03-22T03:31:35.082Z,11.60
2023-03-22T03:34:23.199Z,10.87
2023-03-22T03:36:59.778Z,10.47
2023-03-22T03:39:28.544Z,11.90
2023-03-22T03:41:55.540Z,11.70
2023-03-22T03:44:22.461Z,11.00
2023-03-22T03:46:49.128Z,11.07
2023-03-22T03:49:16.653Z,10.70
2023-03-22T03:51:53.680Z,10.93
2023-03-22T03:54:20.591Z,11.00
2023-03-22T03:56:47.771Z,10.27
2023-03-22T03:59:18.141Z,11.20
2023-03-22T04:01:52.418Z,11.20
2023-03-22T04:04:26.328Z,10.30
2023-03-22T04:06:56.627Z,10.30
2023-03-22T04:09:24.665Z,9.73
2023-03-22T04:11:51.473Z,9.47
2023-03-22T04:14:17.834Z,10.00
2023-03-22T04:16:44.354Z,9.90
2023-03-22T04:19:11.025Z,9.70
2023-03-22T04:21:37.792Z,9.57
2023-03-22T04:24:04.578Z,9.00
2023-03-22T04:26:31.268Z,9.47
2023-03-22T04:28:58.570Z,9.47
2023-03-22T04:31:28.036Z,8.93
2023-03-22T04:33:55.111Z,9.10
2023-03-22T04:36:22.969Z,9.63
2023-03-22T04:38:50.508Z,8.33
2023-03-22T04:41:17.795Z,9.80
2023-03-22T04:43:46.863Z,8.97
2023-03-22T04:46:14.121Z,9.03
2023-03-22T04:48:41.733Z,9.10
2023-03-22T04:51:10.163Z,9.70
2023-03-22T04:53:40.006Z,8.63
2023-03-22T04:56:08.256Z,8.57
2023-03-22T04:58:36.530Z,8.97
2023-03-22T05:01:03.357Z,9.23
2023-03-22T05:03:29.700Z,8.40
2023-03-22T05:05:57.809Z,9.37
2023-03-22T05:08:25.107Z,8.37
2023-03-22T05:10:56.258Z,9.00
2023-03-22T05:13:24.789Z,8.17
2023-03-22T05:15:52.000Z,8.50
2023-03-22T05:18:24.637Z,8.33
2023-03-22T05:20:51.081Z,8.97
2023-03-22T05:23:19.196Z,9.17
2023-03-22T05:25:47.055Z,8.90
2023-03-22T05:28:14.321Z,8.40
2023-03-22T05:30:44.009Z,8.53
2023-03-22T05:33:10.504Z,9.13
2023-03-22T05:35:39.318Z,9.00
2023-03-22T05:38:06.846Z,8.70
2023-03-22T05:40:33.740Z,8.77
2023-03-22T05:43:00.409Z,9.30
2023-03-22T05:45:26.947Z,8.70
2023-03-22T05:47:53.394Z,9.33
2023-03-22T05:50:21.959Z,8.43
2023-03-22T05:52:48.930Z,9.53
2023-03-22T05:55:19.584Z,9.27
2023-03-22T05:57:46.918Z,9.63
2023-03-22T06:00:16.182Z,9.83
2023-03-22T06:02:43.745Z,10.23
2023-03-22T06:05:11.232Z,10.53
2023-03-22T06:07:38.644Z,10.43
2023-03-22T06:10:06.584Z,10.87
2023-03-22T06:12:33.035Z,11.53
2023-03-22T06:14:59.909Z,10.77
2023-03-22T06:17:26.787Z,10.27
2023-03-22T06:19:54.741Z,10.97
2023-03-22T06:22:21.761Z,10.90
2023-03-22T06:24:48.761Z,11.57
2023-03-22T06:27:15.645Z,11.00
2023-03-22T06:29:42.176Z,11.20
2023-03-22T06:32:08.609Z,11.10
2023-03-22T06:34:35.312Z,10.37
2023-03-22T06:37:01.843Z,10.83
2023-03-22T06:39:28.275Z,9.80
2023-03-22T06:41:54.686Z,10.93
2023-03-22T06:44:22.542Z,10.40
2023-03-22T06:46:49.005Z,10.67
2023-03-22T06:49:16.825Z,10.70
2023-03-22T06:51:43.347Z,10.33
2023-03-22T06:54:09.800Z,10.43
2023-03-22T06:56:36.281Z,9.50
2023-03-22T06:59:02.786Z,10.43
2023-03-22T07:01:29.216Z,10.27
2023-03-22T07:03:55.721Z,9.67
2023-03-22T07:06:22.114Z,10.30
2023-03-22T07:08:50.732Z,10.53
2023-03-22T07:11:18.084Z,9.23
2023-03-22T07:13:45.234Z,9.37
2023-03-22T07:16:11.784Z,9.83
2023-03-22T07:18:38.278Z,9.70
2023-03-22T07:21:04.974Z,9.20
2023-03-22T07:23:31.414Z,9.50
2023-03-22T07:25:59.209Z,9.40
2023-03-22T07:28:25.720Z,9.10
2023-03-22T07:31:07.286Z,9.13
2023-03-22T07:33:33.780Z,10.03
2023-03-22T07:36:00.536Z,9.53
2023-03-22T07:38:27.039Z,8.70
2023-03-22T07:40:54.915Z,8.93
2023-03-22T07:43:21.986Z,8.90
2023-03-22T07:45:49.413Z,8.70
2023-03-22T07:48:16.244Z,8.57
2023-03-22T07:50:43.238Z,8.10
2023-03-22T07:53:10.179Z,8.17
2023-03-22T07:55:37.418Z,8.07
2023-03-22T07:58:04.400Z,8.20
2023-03-22T08:00:31.775Z,7.27
2023-03-22T08:02:58.367Z,7.20
2023-03-22T08:05:25.226Z,7.60
2023-03-22T08:07:54.385Z,7.50
2023-03-22T08:10:20.818Z,7.50
2023-03-22T08:12:47.209Z,7.60
2023-03-22T08:15:13.679Z,6.90
2023-03-22T08:17:40.240Z,7.10
2023-03-22T08:20:09.004Z,7.00
2023-03-22T08:22:36.444Z,6.20
2023-03-22T08:25:04.934Z,6.23
2023-03-22T08:27:31.893Z,6.07
2023-03-22T08:29:58.660Z,6.27
2023-03-22T08:32:25.607Z,5.80
2023-03-22T08:34:52.813Z,5.20
2023-03-22T08:37:22.195Z,5.40
2023-03-22T08:39:48.612Z,5.80
2023-03-22T08:42:15.417Z,5.23
2023-03-22T08:44:41.980Z,6.23
2023-03-22T08:47:08.415Z,5.30
2023-03-22T08:49:34.842Z,5.07
2023-03-22T08:52:01.296Z,5.23
2023-03-22T08:54:33.549Z,5.23
2023-03-22T08:57:00.842Z,5.07
2023-03-22T08:59:27.873Z,4.57
2023-03-22T09:01:54.345Z,4.97
2023-03-22T09:04:21.199Z,5.23
2023-03-22T09:06:47.696Z,3.93
2023-03-22T09:09:14.676Z,4.97
2023-03-22T09:11:42.676Z,4.10
2023-03-22T09:14:09.879Z,4.50
2023-03-22T09:16:36.376Z,4.53
2023-03-22T09:19:02.869Z,3.90
2023-03-22T09:21:32.243Z,3.83
2023-03-22T09:23:58.773Z,3.43
2023-03-22T09:26:25.620Z,4.00
2023-03-22T09:28:52.697Z,3.37
2023-03-22T09:31:20.733Z,3.73
2023-03-22T09:33:49.757Z,3.30
2023-03-22T09:36:16.613Z,3.43
2023-03-22T09:38:43.061Z,3.10
2023-03-22T09:41:21.219Z,3.43
2023-03-22T09:43:57.567Z,3.53
2023-03-22T09:46:45.312Z,3.00
2023-03-22T09:49:18.636Z,3.53
2023-03-22T09:51:47.090Z,3.00
2023-03-22T09:54:21.500Z,3.10
2023-03-22T09:56:56.328Z,2.73
2023-03-22T09:59:40.020Z,3.40
2023-03-22T10:02:34.564Z,2.63
2023-03-22T10:05:12.903Z,3.10
2023-03-22T10:07:52.643Z,3.07
2023-03-22T10:10:21.420Z,3.00
2023-03-22T10:13:01.073Z,2.40
2023-03-22T10:15:49.352Z,3.23
2023-03-22T10:18:25.765Z,2.67
2023-03-22T10:21:01.058Z,2.50
2023-03-22T10:23:32.782Z,3.47
2023-03-22T10:26:01.093Z,2.83
2023-03-22T10:28:41.862Z,2.50
2023-03-22T10:31:14.550Z,2.90
2023-03-22T10:33:50.386Z,2.17
2023-03-22T10:36:19.664Z,2.60
2023-03-22T10:38:49.488Z,3.17
2023-03-22T10:41:18.536Z,2.50
2023-03-22T10:43:46.006Z,2.30
2023-03-22T10:46:19.999Z,2.40
2023-03-22T10:48:48.850Z,3.00
2023-03-22T10:51:23.527Z,2.50
2023-03-22T10:53:51.777Z,2.10
2023-03-22T10:56:20.152Z,2.30
2023-03-22T10:58:47.878Z,2.77
2023-03-22T11:01:17.138Z,2.20
2023-03-22T11:03:46.900Z,2.50
2023-03-22T11:06:20.902Z,2.30
2023-03-22T11:08:52.937Z,1.60
2023-03-22T11:11:28.108Z,2.03
2023-03-22T11:14:04.173Z,1.90
2023-03-22T11:16:33.128Z,1.80
2023-03-22T11:19:02.126Z,1.93
2023-03-22T11:21:31.478Z,1.80
2023-03-22T11:24:02.971Z,1.67
2023-03-22T11:26:35.705Z,2.30
2023-03-22T11:29:13.927Z,1.73
2023-03-22T11:31:56.468Z,1.80
2023-03-22T11:34:26.417Z,1.73
2023-03-22T11:36:56.431Z,1.40
2023-03-22T11:39:26.009Z,1.70
2023-03-22T11:41:52.870Z,1.70
2023-03-22T11:44:21.859Z,1.70
2023-03-22T11:46:50.338Z,1.60
2023-03-22T11:49:17.597Z,2.00
2023-03-22T11:51:44.246Z,1.87
2023-03-22T11:54:17.261Z,1.60
2023-03-22T11:56:47.276Z,1.70
2023-03-22T11:59:30.698Z,1.90
2023-03-22T12:02:18.649Z,1.70
2023-03-22T12:04:48.632Z,2.23
2023-03-22T12:07:22.313Z,2.00
2023-03-22T12:10:11.504Z,1.57
2023-03-22T12:12:56.288Z,2.20
2023-03-22T12:15:24.843Z,1.97
2023-03-22T12:18:12.621Z,1.80
2023-03-22T12:20:55.392Z,1.80
2023-03-22T12:23:31.162Z,1.90
2023-03-22T12:26:09.607Z,1.90
2023-03-22T12:28:56.604Z,1.97
2023-03-22T12:31:31.183Z,2.00
2023-03-22T12:34:00.278Z,2.07
2023-03-22T12:36:47.366Z,2.43
2023-03-22T12:39:23.182Z,2.40
2023-03-22T12:41:50.761Z,2.10
2023-03-22T12:44:19.091Z,2.20
2023-03-22T12:46:51.541Z,2.13
2023-03-22T12:49:28.804Z,2.20
2023-03-22T12:52:03.545Z,2.20
2023-03-22T12:54:30.069Z,2.37
2023-03-22T12:56:56.558Z,2.30
2023-03-22T12:59:27.082Z,2.10
2023-03-22T13:02:00.181Z,2.33
2023-03-22T13:04:48.021Z,1.90
2023-03-22T13:07:14.848Z,2.30
2023-03-22T13:09:42.836Z,2.30
2023-03-22T13:12:22.431Z,2.40
2023-03-22T13:14:50.186Z,2.20
2023-03-22T13:17:24.060Z,2.07
2023-03-22T13:19:55.554Z,2.20
2023-03-22T13:22:49.499Z,2.40
2023-03-22T13:25:19.605Z,2.10
2023-03-22T13:27:46.082Z,2.67
2023-03-22T13:30:21.953Z,2.80
2023-03-22T13:32:54.611Z,2.20
2023-03-22T13:35:25.425Z,2.43
2023-03-22T13:37:52.076Z,2.30
2023-03-22T13:41:00.190Z,2.10
2023-03-22T13:43:33.424Z,2.40
2023-03-22T13:46:09.684Z,2.47
2023-03-22T13:48:49.583Z,2.70
2023-03-22T13:51:22.956Z,2.90
2023-03-22T13:53:56.240Z,3.47
2023-03-22T13:56:53.239Z,2.80
2023-03-22T13:59:27.887Z,3.13
2023-03-22T14:02:22.484Z,3.10
2023-03-22T14:05:11.786Z,2.80
2023-03-22T14:07:45.764Z,3.47
2023-03-22T14:10:38.313Z,3.50
2023-03-22T14:13:17.958Z,3.67
2023-03-22T14:15:53.637Z,3.43
2023-03-22T14:18:25.763Z,3.17
2023-03-22T14:21:01.272Z,3.80
